Time;durP1;ratioP1;P1;durP2;ratioP2;P2;SDS_P1;SDS_P2;PMS_P1;PMS_P2;Temp;Humidity;BMP_temperature;BMP_pressure;BME280_temperature;BME280_humidity;BME280_pressure;Samples;Min_cycle;Max_cycle;Signal;HPM_P1;HPM_P2
2022/12/22 03:26:20;;;;;;;1.40;0.67;;;8.10;99.90;;;;;;5031331;28;20467;-67
2022/12/22 03:28:46;;;;;;;4.10;1.27;;;8.10;99.90;;;;;;5031699;28;20421;-67
2022/12/22 03:31:12;;;;;;;1.30;0.70;;;8.10;99.90;;;;;;5030745;28;20860;-67
2022/12/22 03:33:38;;;;;;;1.50;0.80;;;8.20;99.90;;;;;;5031272;28;20189;-68
2022/12/22 03:36:04;;;;;;;1.63;0.83;;;8.10;99.90;;;;;;5031579;28;20185;-68
2022/12/22 03:38:29;;;;;;;1.10;0.50;;;8.10;99.90;;;;;;5031274;28;20425;-68
2022/12/22 03:40:55;;;;;;;1.83;0.93;;;8.10;99.90;;;;;;5031182;28;20417;-68
2022/12/22 03:48:34;;;;;;;3.20;0.87;;;8.10;99.90;;;;;;5031544;28;20475;-68
2022/12/22 03:51:00;;;;;;;2.07;0.80;;;8.10;99.90;;;;;;5031421;28;20429;-68
2022/12/22 03:53:25;;;;;;;1.10;0.50;;;8.20;99.90;;;;;;5030719;28;20546;-68
2022/12/22 03:55:51;;;;;;;1.13;0.50;;;8.20;99.90;;;;;;5030940;28;20244;-68
2022/12/22 03:58:16;;;;;;;2.47;0.80;;;8.20;99.90;;;;;;5031353;28;20209;-68
2022/12/22 04:00:42;;;;;;;1.60;0.80;;;8.20;99.90;;;;;;5030273;28;20400;-68
2022/12/22 04:03:08;;;;;;;2.43;0.63;;;8.30;99.90;;;;;;5030770;28;20530;-68
2022/12/22 04:05:33;;;;;;;1.10;0.40;;;8.30;99.90;;;;;;5030749;28;20201;-68
2022/12/22 04:07:59;;;;;;;1.90;0.73;;;8.30;99.90;;;;;;5031067;28;20591;-68
2022/12/22 04:13:09;;;;;;;1.30;0.70;;;8.40;99.90;;;;;;5030512;28;20259;-68
2022/12/22 04:15:34;;;;;;;3.07;0.90;;;8.40;99.90;;;;;;5016818;28;20775;-68
2022/12/22 04:18:00;;;;;;;5.60;0.63;;;8.40;99.90;;;;;;5030908;28;20225;-68
2022/12/22 04:20:26;;;;;;;1.20;0.63;;;8.40;99.90;;;;;;5030394;28;20190;-68
2022/12/22 04:22:56;;;;;;;1.30;0.80;;;8.40;99.90;;;;;;5030660;28;20182;-68
2022/12/22 04:25:23;;;;;;;3.93;0.90;;;8.40;99.90;;;;;;5012210;28;20443;-67
2022/12/22 04:27:48;;;;;;;1.40;0.80;;;8.40;99.90;;;;;;5029382;28;20482;-68
2022/12/22 04:30:14;;;;;;;1.23;0.57;;;8.40;99.90;;;;;;5030423;28;20512;-68
2022/12/22 04:32:40;;;;;;;1.47;0.70;;;8.40;99.90;;;;;;5029909;28;20217;-68
2022/12/22 04:35:07;;;;;;;1.80;0.63;;;8.40;99.90;;;;;;5030294;28;20416;-68
2022/12/22 04:37:32;;;;;;;1.30;0.67;;;8.30;99.90;;;;;;5030447;28;20187;-68
2022/12/22 04:39:59;;;;;;;1.47;0.50;;;8.30;99.90;;;;;;5030791;28;20432;-67
2022/12/22 04:42:25;;;;;;;2.87;0.70;;;8.30;99.90;;;;;;5030088;28;20664;-67
2022/12/22 04:44:50;;;;;;;4.80;0.60;;;8.40;99.90;;;;;;5030313;28;20464;-68
2022/12/22 04:47:17;;;;;;;6.13;0.80;;;8.30;99.90;;;;;;5030186;28;20622;-68
2022/12/22 04:49:42;;;;;;;2.23;0.83;;;8.30;99.90;;;;;;5030301;28;20249;-68
2022/12/22 04:52:08;;;;;;;6.53;0.90;;;8.30;99.90;;;;;;5029880;28;20520;-68
2022/12/22 04:54:33;;;;;;;1.40;0.50;;;8.30;99.90;;;;;;5030195;28;20186;-67
2022/12/22 04:56:59;;;;;;;1.30;0.60;;;8.30;99.90;;;;;;5030151;28;20188;-67
2022/12/22 04:59:25;;;;;;;1.50;0.60;;;8.30;99.90;;;;;;5030233;28;20210;-67
2022/12/22 05:01:50;;;;;;;2.53;0.77;;;8.20;99.90;;;;;;5029953;28;21361;-67
2022/12/22 05:04:16;;;;;;;1.30;0.70;;;8.30;99.90;;;;;;5030049;28;20190;-68
2022/12/22 05:06:42;;;;;;;1.97;0.70;;;8.30;99.90;;;;;;5030726;28;20206;-68
2022/12/22 05:09:09;;;;;;;7.67;0.93;;;8.30;99.90;;;;;;5030256;28;20194;-68
2022/12/22 05:11:35;;;;;;;2.23;0.80;;;8.30;99.90;;;;;;5029669;28;20209;-68
2022/12/22 05:14:00;;;;;;;2.10;1.00;;;8.30;99.90;;;;;;5030645;28;20980;-67
2022/12/22 05:16:26;;;;;;;1.73;0.90;;;8.30;99.90;;;;;;5030995;28;20179;-67
2022/12/22 05:18:51;;;;;;;2.43;0.90;;;8.30;99.90;;;;;;5031054;28;20601;-68
2022/12/22 05:21:19;;;;;;;1.10;0.50;;;8.30;99.90;;;;;;5031253;28;20262;-68
2022/12/22 05:23:46;;;;;;;2.83;0.63;;;8.30;99.90;;;;;;5030822;28;20187;-68
2022/12/22 05:26:13;;;;;;;4.20;1.00;;;8.30;99.90;;;;;;5030656;28;20424;-68
2022/12/22 05:28:40;;;;;;;1.20;0.57;;;8.20;99.90;;;;;;5030913;28;20515;-68
2022/12/22 05:31:16;;;;;;;1.40;0.60;;;8.20;99.90;;;;;;5030349;28;21231;-68
2022/12/22 05:33:42;;;;;;;4.40;0.90;;;8.20;99.90;;;;;;5030337;28;20999;-68
2022/12/22 05:36:08;;;;;;;2.13;0.60;;;8.20;99.90;;;;;;5031007;28;20627;-68
2022/12/22 05:38:33;;;;;;;5.60;1.17;;;8.20;99.90;;;;;;5030619;28;20182;-68
2022/12/22 05:40:59;;;;;;;8.13;1.30;;;8.10;99.90;;;;;;5029879;28;20175;-68
2022/12/22 05:43:24;;;;;;;1.70;0.70;;;8.20;99.90;;;;;;5030152;28;20189;-68
2022/12/22 05:45:51;;;;;;;1.30;0.70;;;8.20;99.90;;;;;;5032939;28;20186;-68
2022/12/22 05:48:17;;;;;;;4.63;1.07;;;8.20;99.90;;;;;;5033594;28;20182;-68
2022/12/22 05:50:43;;;;;;;2.50;1.10;;;8.20;99.90;;;;;;5033496;28;20425;-68
2022/12/22 05:53:08;;;;;;;2.13;1.00;;;8.20;99.90;;;;;;5033135;28;20245;-68
2022/12/22 05:55:34;;;;;;;2.87;1.40;;;8.10;99.90;;;;;;5033056;28;20627;-68
2022/12/22 05:58:00;;;;;;;2.20;1.10;;;8.10;99.90;;;;;;5033516;28;20615;-68
2022/12/22 06:00:30;;;;;;;5.97;1.87;;;8.10;99.90;;;;;;5032865;28;20174;-68
2022/12/22 06:02:56;;;;;;;4.03;1.50;;;8.20;99.90;;;;;;5032783;28;20436;-68
2022/12/22 06:05:23;;;;;;;4.87;1.40;;;8.20;99.90;;;;;;5033498;28;20953;-67
2022/12/22 06:07:48;;;;;;;4.07;1.83;;;8.20;99.90;;;;;;5033493;28;20433;-68
2022/12/22 06:10:14;;;;;;;4.50;1.30;;;8.30;99.90;;;;;;5033086;28;20421;-67
2022/12/22 06:12:41;;;;;;;2.93;1.10;;;8.40;99.90;;;;;;5032579;28;20209;-67
2022/12/22 06:15:09;;;;;;;9.83;1.27;;;8.50;99.90;;;;;;5032542;28;20443;-67
2022/12/22 06:17:35;;;;;;;1.40;0.77;;;8.50;99.90;;;;;;5032716;28;20965;-67
2022/12/22 06:20:01;;;;;;;3.33;1.30;;;8.60;99.90;;;;;;5032979;28;20575;-67
2022/12/22 06:22:26;;;;;;;7.00;1.10;;;8.60;99.90;;;;;;5032626;28;20662;-67
2022/12/22 06:24:52;;;;;;;2.70;1.10;;;8.60;99.90;;;;;;5032918;28;20174;-68
2022/12/22 06:27:18;;;;;;;11.43;1.70;;;8.60;99.90;;;;;;5028720;28;20189;-68
2022/12/22 06:29:43;;;;;;;3.80;1.53;;;8.60;99.90;;;;;;5028158;28;20882;-68
2022/12/22 06:32:09;;;;;;;1.20;0.50;;;8.60;99.90;;;;;;5029370;28;20210;-68
2022/12/22 06:34:34;;;;;;;5.23;1.57;;;8.60;99.90;;;;;;5032798;28;20257;-68
2022/12/22 06:37:00;;;;;;;5.37;1.33;;;8.60;99.90;;;;;;5032589;28;20234;-68
2022/12/22 06:39:26;;;;;;;6.00;1.63;;;8.70;99.90;;;;;;5032786;28;20185;-68
2022/12/22 06:44:35;;;;;;;23.93;1.80;;;8.70;99.90;;;;;;5032055;28;20266;-68
2022/12/22 06:47:01;;;;;;;5.77;1.60;;;8.80;99.90;;;;;;5032264;28;20433;-68
2022/12/22 06:49:26;;;;;;;5.60;1.23;;;8.80;99.90;;;;;;5032746;28;20190;-68
2022/12/22 06:51:52;;;;;;;6.03;1.40;;;8.80;99.90;;;;;;5032213;28;20614;-68
2022/12/22 06:54:18;;;;;;;5.67;2.10;;;8.90;99.90;;;;;;5032293;28;20261;-68
2022/12/22 06:56:43;;;;;;;9.63;1.97;;;8.90;99.90;;;;;;5031583;28;20332;-68
2022/12/22 06:59:09;;;;;;;3.60;1.10;;;8.90;99.90;;;;;;5031884;28;20184;-68
2022/12/22 07:01:35;;;;;;;6.27;1.30;;;8.90;99.90;;;;;;5031641;28;20190;-68
2022/12/22 07:04:00;;;;;;;1.20;0.60;;;8.90;99.90;;;;;;5032167;28;20182;-68
2022/12/22 07:06:26;;;;;;;6.00;1.63;;;8.90;99.90;;;;;;5032328;28;20240;-69
2022/12/22 07:08:51;;;;;;;1.80;1.03;;;8.90;99.90;;;;;;5032163;28;20213;-68
2022/12/22 07:11:17;;;;;;;4.30;0.93;;;8.90;99.90;;;;;;5031516;28;20293;-68
2022/12/22 07:13:43;;;;;;;6.37;1.87;;;8.80;99.90;;;;;;5030405;28;20181;-68
2022/12/22 07:16:10;;;;;;;1.63;0.60;;;8.80;99.90;;;;;;5030572;28;20209;-68
2022/12/22 07:18:38;;;;;;;2.40;1.40;;;8.80;99.90;;;;;;5032063;28;20945;-69
2022/12/22 07:21:06;;;;;;;6.20;1.10;;;8.90;99.90;;;;;;5031842;28;20428;-69
2022/12/22 07:23:31;;;;;;;3.33;1.50;;;8.90;99.90;;;;;;5031361;28;20461;-69
2022/12/22 07:25:57;;;;;;;11.13;1.43;;;9.00;99.90;;;;;;5031755;28;20457;-69
2022/12/22 07:28:23;;;;;;;8.70;1.33;;;9.10;99.90;;;;;;5031221;28;20595;-69
2022/12/22 07:30:50;;;;;;;4.60;1.57;;;9.10;99.90;;;;;;5031309;28;20201;-69
2022/12/22 07:33:16;;;;;;;4.33;1.10;;;9.00;99.90;;;;;;5030965;28;20523;-68
2022/12/22 07:35:41;;;;;;;7.60;1.30;;;9.00;99.90;;;;;;5031734;28;20413;-68
2022/12/22 07:38:07;;;;;;;7.63;1.70;;;8.80;99.90;;;;;;5031734;28;20452;-68
2022/12/22 07:40:33;;;;;;;8.20;1.10;;;8.70;99.90;;;;;;5031411;28;20548;-68
2022/12/22 07:42:59;;;;;;;9.33;1.20;;;8.50;99.90;;;;;;5030774;28;20595;-69
2022/12/22 07:45:26;;;;;;;5.23;0.90;;;8.50;99.90;;;;;;5030920;28;20236;-68
2022/12/22 07:47:57;;;;;;;2.37;0.80;;;8.40;99.90;;;;;;5031177;28;20443;-68
2022/12/22 07:50:28;;;;;;;4.60;1.43;;;8.30;99.90;;;;;;5029176;28;20432;-68
2022/12/22 07:52:55;;;;;;;6.63;0.93;;;8.20;99.90;;;;;;5028968;28;20479;-68
2022/12/22 07:55:21;;;;;;;5.70;0.77;;;8.20;99.90;;;;;;5029842;28;20421;-68
2022/12/22 07:57:47;;;;;;;9.43;1.10;;;8.10;99.90;;;;;;5030981;28;20425;-68
2022/12/22 08:00:14;;;;;;;6.80;1.50;;;8.10;99.90;;;;;;5030281;28;20424;-68
2022/12/22 08:02:39;;;;;;;5.43;1.90;;;8.10;99.90;;;;;;5029327;28;20436;-68
2022/12/22 08:05:06;;;;;;;6.60;2.20;;;8.00;99.90;;;;;;5030812;28;20435;-68
2022/12/22 08:07:32;;;;;;;7.10;1.10;;;8.00;99.90;;;;;;5030707;28;20193;-68
2022/12/22 08:09:58;;;;;;;5.03;1.90;;;8.00;99.90;;;;;;5030345;28;20421;-68
2022/12/22 08:12:24;;;;;;;4.73;1.50;;;8.00;99.90;;;;;;5030289;28;20336;-68
2022/12/22 08:14:50;;;;;;;3.70;1.40;;;8.10;99.90;;;;;;5030296;28;20452;-68
2022/12/22 08:17:15;;;;;;;9.40;2.40;;;8.10;99.90;;;;;;5030677;28;20467;-68
2022/12/22 08:19:41;;;;;;;2.10;1.20;;;8.20;99.90;;;;;;5030751;28;20221;-68
2022/12/22 08:22:07;;;;;;;2.43;1.43;;;8.20;99.90;;;;;;5030374;28;20182;-68
2022/12/22 08:24:32;;;;;;;9.43;1.47;;;8.20;99.90;;;;;;5026577;28;20194;-68
2022/12/22 08:27:04;;;;;;;7.33;2.13;;;8.20;99.90;;;;;;5028912;28;20265;-68
2022/12/22 08:29:43;;;;;;;6.20;1.17;;;8.30;99.90;;;;;;5028820;28;20222;-68
2022/12/22 08:32:10;;;;;;;2.80;1.10;;;8.30;99.90;;;;;;5027974;28;20461;-68
2022/12/22 08:34:36;;;;;;;4.47;1.40;;;8.30;99.90;;;;;;5028878;28;20420;-68
2022/12/22 08:37:05;;;;;;;6.10;1.30;;;8.20;99.90;;;;;;5029001;28;20957;-68
2022/12/22 08:39:35;;;;;;;3.63;1.00;;;8.20;99.90;;;;;;5029174;28;20624;-68
2022/12/22 08:42:04;;;;;;;7.13;1.80;;;8.20;99.90;;;;;;5028500;28;20447;-68
2022/12/22 08:44:30;;;;;;;6.70;2.17;;;8.30;99.90;;;;;;5028535;28;20480;-68
2022/12/22 08:46:57;;;;;;;4.63;2.20;;;8.40;99.90;;;;;;5028846;28;21251;-68
2022/12/22 08:49:23;;;;;;;2.60;1.10;;;8.40;99.90;;;;;;5028770;28;20571;-68
2022/12/22 08:51:50;;;;;;;2.53;0.80;;;8.40;99.90;;;;;;5028222;28;20460;-68
2022/12/22 08:54:16;;;;;;;3.10;1.40;;;8.50;99.90;;;;;;5028258;28;20944;-68
2022/12/22 08:56:42;;;;;;;2.30;1.00;;;8.50;99.90;;;;;;5029002;28;20425;-68
2022/12/22 08:59:08;;;;;;;5.00;1.30;;;8.50;99.90;;;;;;5028233;28;20532;-68
2022/12/22 09:01:41;;;;;;;5.90;1.80;;;8.50;99.90;;;;;;5028108;28;20455;-68
2022/12/22 09:04:07;;;;;;;3.97;1.50;;;8.60;99.90;;;;;;5028489;28;20497;-68
2022/12/22 09:06:33;;;;;;;7.03;1.17;;;8.60;99.90;;;;;;5028904;28;20516;-68
2022/12/22 09:09:01;;;;;;;5.40;1.93;;;8.70;99.90;;;;;;5028663;28;20187;-68
2022/12/22 09:11:28;;;;;;;10.20;1.50;;;8.80;99.90;;;;;;5019959;28;20206;-68
2022/12/22 09:13:57;;;;;;;4.60;1.63;;;8.90;99.90;;;;;;5028458;28;20432;-68
2022/12/22 09:16:24;;;;;;;5.70;1.37;;;8.80;99.90;;;;;;5015699;28;20435;-68
2022/12/22 09:18:49;;;;;;;4.17;0.83;;;8.70;99.90;;;;;;5033172;28;20447;-68
2022/12/22 09:21:16;;;;;;;2.43;1.00;;;8.70;99.90;;;;;;5032184;28;20425;-67
2022/12/22 09:23:41;;;;;;;2.60;1.10;;;8.50;99.90;;;;;;5031721;28;20182;-67
2022/12/22 09:26:09;;;;;;;5.30;1.27;;;8.40;99.90;;;;;;5032169;28;20440;-68
2022/12/22 09:28:35;;;;;;;6.43;1.73;;;8.40;99.90;;;;;;5031830;28;20190;-67
2022/12/22 09:31:01;;;;;;;2.73;1.30;;;8.40;99.90;;;;;;5031795;28;20471;-67
2022/12/22 09:33:27;;;;;;;5.00;1.67;;;8.30;99.90;;;;;;5031032;28;20413;-67
2022/12/22 09:35:53;;;;;;;3.03;1.07;;;8.20;99.90;;;;;;5032113;28;20193;-67
2022/12/22 09:38:19;;;;;;;6.00;1.13;;;8.30;99.90;;;;;;5032013;28;20593;-67
2022/12/22 09:40:44;;;;;;;15.83;1.07;;;8.20;99.90;;;;;;5032253;28;20185;-67
2022/12/22 09:43:17;;;;;;;4.80;1.50;;;8.20;99.90;;;;;;5031254;28;20413;-66
2022/12/22 09:45:43;;;;;;;8.47;1.77;;;8.30;99.90;;;;;;5031236;28;20178;-66
2022/12/22 09:48:12;;;;;;;3.50;1.20;;;8.30;99.90;;;;;;5030859;28;20440;-66
2022/12/22 09:50:39;;;;;;;3.17;1.20;;;8.20;99.90;;;;;;5031405;28;20878;-67
2022/12/22 09:53:07;;;;;;;9.93;1.20;;;8.20;99.90;;;;;;5031126;28;20514;-66
2022/12/22 09:55:46;;;;;;;2.37;0.90;;;8.20;99.90;;;;;;5031392;28;20427;-66
2022/12/22 09:58:27;;;;;;;6.00;1.10;;;8.20;99.90;;;;;;5029171;28;20960;-66
2022/12/22 10:01:01;;;;;;;3.23;0.83;;;8.30;99.90;;;;;;5031024;28;20768;-66
2022/12/22 10:03:45;;;;;;;1.70;0.93;;;8.20;99.90;;;;;;5030991;28;20550;-66
2022/12/22 10:06:15;;;;;;;16.53;1.77;;;8.20;99.90;;;;;;5033258;28;20413;-67
2022/12/22 10:08:41;;;;;;;6.80;1.17;;;8.30;99.90;;;;;;5032901;28;20397;-67
2022/12/22 10:11:17;;;;;;;1.83;0.77;;;8.20;99.90;;;;;;5032187;28;20424;-66
2022/12/22 10:13:44;;;;;;;5.00;1.63;;;8.30;99.90;;;;;;5032817;28;20413;-67
2022/12/22 10:16:27;;;;;;;9.03;1.83;;;8.20;99.90;;;;;;5032409;28;20417;-66
2022/12/22 10:18:58;;;;;;;10.23;1.37;;;8.20;99.90;;;;;;5032189;28;20441;-66
2022/12/22 10:21:25;;;;;;;6.07;1.13;;;8.30;99.90;;;;;;5032349;28;20421;-66
2022/12/22 10:23:51;;;;;;;4.03;1.60;;;8.30;99.90;;;;;;5032167;28;20452;-66
2022/12/22 10:26:26;;;;;;;3.60;1.30;;;8.30;99.90;;;;;;5032252;28;20440;-66
2022/12/22 10:29:11;;;;;;;3.10;1.00;;;8.30;99.90;;;;;;5032461;28;20440;-67
2022/12/22 10:32:01;;;;;;;3.20;1.10;;;8.30;99.90;;;;;;5031766;28;20487;-67
2022/12/22 10:34:27;;;;;;;2.87;1.07;;;8.30;99.90;;;;;;5020577;28;20413;-67
2022/12/22 10:37:04;;;;;;;1.40;1.00;;;8.30;99.90;;;;;;5032124;28;20441;-67
2022/12/22 10:39:33;;;;;;;6.00;1.47;;;8.30;99.90;;;;;;5032514;28;20989;-67
2022/12/22 10:42:09;;;;;;;2.77;1.30;;;8.40;99.90;;;;;;5031452;28;20416;-67
2022/12/22 10:44:37;;;;;;;1.40;1.00;;;8.50;99.90;;;;;;5032121;28;20416;-67
2022/12/22 10:47:18;;;;;;;4.90;1.60;;;8.40;99.90;;;;;;5031823;28;20425;-67
2022/12/22 10:49:47;;;;;;;3.10;1.27;;;8.40;99.90;;;;;;5032895;28;20417;-67
2022/12/22 10:52:19;;;;;;;4.70;1.23;;;8.50;99.90;;;;;;5032466;28;20464;-66
2022/12/22 10:54:46;;;;;;;6.50;1.10;;;8.40;99.90;;;;;;5032470;28;20437;-67
2022/12/22 10:57:15;;;;;;;4.60;1.60;;;8.50;99.90;;;;;;5032549;28;20452;-66
2022/12/22 10:59:55;;;;;;;5.13;1.60;;;8.50;99.90;;;;;;5032325;28;20413;-67
2022/12/22 11:02:24;;;;;;;3.87;1.47;;;8.50;99.90;;;;;;5031800;28;20791;-67
2022/12/22 11:04:51;;;;;;;1.40;0.80;;;8.60;99.90;;;;;;5032097;28;20507;-67
2022/12/22 11:07:17;;;;;;;3.30;1.20;;;8.60;99.90;;;;;;5031929;28;20489;-66
2022/12/22 11:09:43;;;;;;;5.33;1.37;;;8.70;99.90;;;;;;5031095;28;21023;-67
2022/12/22 11:12:43;;;;;;;2.63;0.80;;;8.70;99.90;;;;;;5030518;28;20206;-67
2022/12/22 11:15:17;;;;;;;3.10;1.43;;;8.80;99.90;;;;;;4969715;28;20196;-67
2022/12/22 11:17:45;;;;;;;1.50;0.70;;;8.80;99.90;;;;;;5020285;28;20429;-67
2022/12/22 11:20:27;;;;;;;1.50;0.67;;;8.80;99.90;;;;;;5031284;28;20451;-67
2022/12/22 11:22:52;;;;;;;2.97;1.30;;;8.80;99.90;;;;;;5018881;28;20741;-67
2022/12/22 11:25:48;;;;;;;1.80;0.80;;;8.80;99.90;;;;;;5031208;28;20463;-67
2022/12/22 11:28:25;;;;;;;2.03;1.20;;;8.80;99.90;;;;;;5022928;28;20638;-67
2022/12/22 11:31:01;;;;;;;4.63;0.77;;;8.90;99.90;;;;;;5031246;28;20439;-67
2022/12/22 11:33:49;;;;;;;2.47;0.83;;;8.90;99.90;;;;;;5030728;28;20461;-67
2022/12/22 11:36:24;;;;;;;2.40;0.70;;;9.00;99.90;;;;;;5031440;28;20413;-68
2022/12/22 11:39:28;;;;;;;2.47;0.70;;;9.00;99.90;;;;;;5031135;28;20782;-68
2022/12/22 11:42:03;;;;;;;3.30;0.90;;;9.10;99.90;;;;;;4949276;28;20436;-68
2022/12/22 11:44:59;;;;;;;1.80;0.77;;;9.10;99.90;;;;;;4949952;29;20979;-68
2022/12/22 11:48:05;;;;;;;5.07;0.80;;;9.10;99.90;;;;;;5008239;28;20525;-68
2022/12/22 11:50:40;;;;;;;3.33;1.00;;;9.10;99.90;;;;;;5019511;28;20413;-68
2022/12/22 11:53:14;;;;;;;5.60;1.50;;;9.10;99.90;;;;;;5030298;28;20459;-68
2022/12/22 11:56:11;;;;;;;7.77;2.00;;;9.10;99.90;;;;;;5031183;28;20503;-68
2022/12/22 11:58:45;;;;;;;3.77;0.90;;;9.20;99.90;;;;;;5019154;28;20441;-68
2022/12/22 12:01:24;;;;;;;2.90;1.43;;;9.20;99.90;;;;;;5030007;28;21013;-69
2022/12/22 12:04:11;;;;;;;5.23;1.20;;;9.20;99.90;;;;;;5030399;28;20896;-69
2022/12/22 12:06:52;;;;;;;2.33;0.70;;;9.30;99.90;;;;;;5018141;28;20409;-68
2022/12/22 12:09:20;;;;;;;1.10;0.50;;;9.20;99.90;;;;;;5026954;28;20404;-68
2022/12/22 12:12:01;;;;;;;1.67;0.77;;;9.30;99.90;;;;;;5027807;28;20519;-69
2022/12/22 12:15:08;;;;;;;1.73;0.77;;;9.30;99.90;;;;;;5026340;28;20789;-68
2022/12/22 12:17:59;;;;;;;3.40;1.07;;;9.30;99.90;;;;;;4965258;28;20462;-68
2022/12/22 12:20:24;;;;;;;2.53;0.90;;;9.40;99.90;;;;;;5021909;28;21005;-68
2022/12/22 12:22:58;;;;;;;1.67;0.70;;;9.40;99.90;;;;;;5028758;28;20500;-68
2022/12/22 12:25:47;;;;;;;2.50;0.93;;;9.40;99.90;;;;;;5035030;28;20185;-67
2022/12/22 12:28:34;;;;;;;2.70;0.90;;;9.30;99.90;;;;;;5016501;28;20464;-68
2022/12/22 12:31:00;;;;;;;3.33;0.60;;;9.30;99.90;;;;;;5026154;28;20431;-68
2022/12/22 12:33:48;;;;;;;1.97;0.80;;;9.30;99.90;;;;;;5029524;28;21154;-68
2022/12/22 12:36:20;;;;;;;2.37;0.50;;;9.20;99.90;;;;;;5030421;28;20432;-68
2022/12/22 12:38:46;;;;;;;2.17;0.50;;;9.20;99.90;;;;;;5030631;28;20476;-68
2022/12/22 12:41:22;;;;;;;1.27;0.60;;;9.20;99.90;;;;;;5030603;28;20914;-68
2022/12/22 12:43:51;;;;;;;1.57;0.53;;;9.30;99.90;;;;;;5029869;28;20544;-68
2022/12/22 12:46:50;;;;;;;2.17;0.60;;;9.30;99.90;;;;;;5030271;28;20425;-69
2022/12/22 12:49:33;;;;;;;1.53;0.63;;;9.30;99.90;;;;;;5021102;28;20488;-69
2022/12/22 12:52:09;;;;;;;2.70;0.80;;;9.30;99.90;;;;;;5029835;28;20813;-69
2022/12/22 12:55:00;;;;;;;1.70;0.90;;;9.20;99.90;;;;;;5029173;28;20519;-68
2022/12/22 12:57:39;;;;;;;2.07;0.80;;;9.10;99.90;;;;;;5032170;28;20413;-68
2022/12/22 13:00:25;;;;;;;1.20;0.60;;;9.10;99.90;;;;;;5021106;28;20406;-68
2022/12/22 13:03:20;;;;;;;5.63;1.70;;;9.20;99.90;;;;;;5033086;28;20420;-69
2022/12/22 13:05:56;;;;;;;3.13;0.90;;;9.20;99.90;;;;;;5032564;28;20429;-69
2022/12/22 13:08:25;;;;;;;2.23;1.03;;;9.20;99.90;;;;;;5022186;28;20491;-68
2022/12/22 13:10:54;;;;;;;2.30;0.70;;;9.20;99.90;;;;;;5033785;28;20417;-69
2022/12/22 13:13:22;;;;;;;1.67;0.63;;;9.20;99.90;;;;;;5033345;28;20882;-68
2022/12/22 13:16:08;;;;;;;5.03;0.90;;;9.10;99.90;;;;;;5033446;28;20491;-68
2022/12/22 13:18:34;;;;;;;2.80;0.63;;;9.10;99.90;;;;;;5011795;28;20474;-68
2022/12/22 13:21:07;;;;;;;2.00;0.77;;;9.10;99.90;;;;;;5033144;28;20421;-68
2022/12/22 13:23:36;;;;;;;1.60;0.83;;;9.00;99.90;;;;;;5032862;28;20175;-68
2022/12/22 13:26:11;;;;;;;1.10;0.50;;;9.20;99.90;;;;;;5030625;28;20507;-68
2022/12/22 13:28:41;;;;;;;1.40;0.80;;;9.20;99.90;;;;;;5033014;28;20917;-68
2022/12/22 13:31:19;;;;;;;3.77;0.93;;;9.20;99.90;;;;;;5032987;28;20417;-68
2022/12/22 13:34:02;;;;;;;2.50;1.07;;;9.20;99.90;;;;;;5029859;28;20511;-68
2022/12/22 13:36:30;;;;;;;1.40;0.70;;;9.20;99.90;;;;;;5031333;28;20463;-68
2022/12/22 13:39:01;;;;;;;3.97;1.03;;;9.20;99.90;;;;;;5032707;28;20417;-68
2022/12/22 13:41:27;;;;;;;1.60;0.70;;;9.20;99.90;;;;;;5033128;28;20409;-68
2022/12/22 13:43:57;;;;;;;4.30;0.90;;;9.20;99.90;;;;;;5033224;28;20455;-68
2022/12/22 13:46:23;;;;;;;2.80;1.33;;;9.10;99.90;;;;;;5033037;28;20409;-68
2022/12/22 13:48:51;;;;;;;2.80;0.93;;;9.30;99.90;;;;;;5033029;28;20409;-68
2022/12/22 13:51:22;;;;;;;4.40;0.80;;;9.20;99.90;;;;;;5032908;28;20416;-68
2022/12/22 13:53:58;;;;;;;2.30;0.93;;;9.30;99.90;;;;;;5032581;28;20940;-68
2022/12/22 13:56:31;;;;;;;1.60;0.70;;;9.20;99.90;;;;;;5032986;28;20468;-68
2022/12/22 13:58:59;;;;;;;1.30;0.67;;;9.20;99.90;;;;;;5032339;28;20412;-68
2022/12/22 14:01:25;;;;;;;2.00;1.00;;;9.10;99.90;;;;;;5032560;28;20421;-68
2022/12/22 14:03:51;;;;;;;1.50;0.70;;;9.00;99.90;;;;;;5031704;28;20428;-68
2022/12/22 14:06:30;;;;;;;3.43;1.23;;;9.00;99.90;;;;;;5032413;28;20431;-68
2022/12/22 14:09:20;;;;;;;9.90;2.23;;;9.00;99.90;;;;;;5032777;28;20432;-68
2022/12/22 14:12:17;;;;;;;2.00;0.80;;;9.00;99.90;;;;;;5032359;28;20468;-68
2022/12/22 14:14:45;;;;;;;9.47;1.20;;;9.00;99.90;;;;;;5024197;28;20421;-68
2022/12/22 14:17:34;;;;;;;8.40;1.00;;;9.00;99.90;;;;;;5015171;28;20413;-68
2022/12/22 14:20:18;;;;;;;9.00;1.00;;;9.00;99.90;;;;;;5032911;28;20576;-69
2022/12/22 14:23:12;;;;;;;7.43;1.27;;;9.00;99.90;;;;;;5032680;28;20440;-68
2022/12/22 14:25:40;;;;;;;2.70;1.37;;;9.00;99.90;;;;;;5032440;28;20416;-68
2022/12/22 14:28:21;;;;;;;6.10;1.60;;;9.10;99.90;;;;;;5032415;28;20400;-69
2022/12/22 14:30:51;;;;;;;10.10;1.10;;;9.10;99.90;;;;;;5032380;28;20551;-69
2022/12/22 14:33:34;;;;;;;3.93;1.93;;;9.10;99.90;;;;;;5032155;28;20449;-69
2022/12/22 14:36:24;;;;;;;3.47;1.33;;;9.10;99.90;;;;;;5021737;28;20426;-69
2022/12/22 14:38:51;;;;;;;3.47;1.23;;;9.00;99.90;;;;;;5032774;28;20409;-69
2022/12/22 14:41:41;;;;;;;3.50;1.20;;;9.00;99.90;;;;;;5032922;28;20409;-69
2022/12/22 14:44:13;;;;;;;2.30;1.40;;;9.00;99.90;;;;;;5021464;28;20420;-69
2022/12/22 14:46:40;;;;;;;6.93;1.47;;;8.90;99.90;;;;;;5032407;28;20413;-69
2022/12/22 14:49:16;;;;;;;6.80;1.90;;;8.80;99.90;;;;;;5032064;28;20413;-69
2022/12/22 14:51:50;;;;;;;5.80;1.83;;;8.80;99.90;;;;;;5027609;28;20499;-68
2022/12/22 14:54:22;;;;;;;2.03;0.93;;;8.80;99.90;;;;;;5031249;28;20413;-69
2022/12/22 14:56:51;;;;;;;7.43;1.53;;;8.70;99.90;;;;;;5032415;28;20413;-69
2022/12/22 14:59:26;;;;;;;12.33;1.60;;;8.70;99.90;;;;;;5031475;28;20911;-69
2022/12/22 15:02:17;;;;;;;2.27;1.00;;;8.60;99.90;;;;;;5031952;28;20413;-69
2022/12/22 15:04:43;;;;;;;5.60;1.80;;;8.60;99.90;;;;;;5032049;28;20413;-69
2022/12/22 15:07:19;;;;;;;6.30;2.00;;;8.60;99.90;;;;;;5032348;28;20483;-69
2022/12/22 15:09:45;;;;;;;6.13;1.77;;;8.60;99.90;;;;;;5031692;28;20229;-69
2022/12/22 15:12:17;;;;;;;6.40;1.50;;;8.60;99.90;;;;;;5031603;28;20457;-70
2022/12/22 15:14:46;;;;;;;2.67;1.40;;;8.60;99.90;;;;;;5031616;28;21300;-72
2022/12/22 15:17:24;;;;;;;8.13;2.07;;;8.60;99.90;;;;;;5031051;28;20421;-73
2022/12/22 15:19:50;;;;;;;15.93;1.77;;;8.70;99.90;;;;;;5031897;28;20531;-73
2022/12/22 15:22:16;;;;;;;2.83;1.57;;;8.60;99.90;;;;;;5031012;28;20528;-73
2022/12/22 15:24:41;;;;;;;12.87;1.90;;;8.60;99.90;;;;;;5031548;28;20925;-73
2022/12/22 15:27:07;;;;;;;6.93;1.60;;;8.60;99.90;;;;;;5031763;28;20190;-73
2022/12/22 15:29:33;;;;;;;9.30;2.30;;;8.60;99.90;;;;;;5031360;28;20267;-73
2022/12/22 15:31:58;;;;;;;10.27;2.20;;;8.50;99.90;;;;;;5031280;28;20257;-72
2022/12/22 15:34:27;;;;;;;4.40;1.00;;;8.50;99.90;;;;;;5031558;28;20685;-73
2022/12/22 15:36:59;;;;;;;4.70;1.10;;;8.50;99.90;;;;;;5068480;28;20817;-73
2022/12/22 15:39:24;;;;;;;3.70;1.47;;;8.50;99.90;;;;;;5057326;28;20463;-73
2022/12/22 15:41:50;;;;;;;4.27;1.83;;;8.50;99.90;;;;;;5052414;28;20178;-73
2022/12/22 15:44:16;;;;;;;11.17;3.00;;;8.50;99.90;;;;;;5047383;28;20186;-73
2022/12/22 15:46:44;;;;;;;6.93;2.07;;;8.50;99.90;;;;;;5051674;28;20562;-73
2022/12/22 15:49:14;;;;;;;4.17;0.80;;;8.50;99.90;;;;;;5056442;28;20516;-72
2022/12/22 15:51:40;;;;;;;5.93;2.20;;;8.60;99.90;;;;;;5045263;28;20460;-73
2022/12/22 15:54:10;;;;;;;4.13;2.17;;;8.50;99.90;;;;;;5047498;28;20463;-73
2022/12/22 15:56:35;;;;;;;9.40;1.93;;;8.50;99.90;;;;;;5047962;28;20267;-73
2022/12/22 15:59:01;;;;;;;5.03;1.57;;;8.50;99.90;;;;;;5059059;28;20423;-73
2022/12/22 16:01:27;;;;;;;11.70;2.70;;;8.50;99.90;;;;;;5067394;28;20581;-73
2022/12/22 16:03:52;;;;;;;12.73;2.07;;;8.50;99.90;;;;;;5067459;28;20192;-72
2022/12/22 16:06:18;;;;;;;4.73;1.60;;;8.50;99.90;;;;;;5049403;28;20255;-72
2022/12/22 16:08:48;;;;;;;6.50;2.00;;;8.50;99.90;;;;;;5047755;28;20265;-72
2022/12/22 16:11:15;;;;;;;4.43;2.10;;;8.40;99.90;;;;;;5047129;28;20427;-72
2022/12/22 16:13:41;;;;;;;7.40;1.83;;;8.30;99.90;;;;;;5059267;28;20907;-72
2022/12/22 16:16:07;;;;;;;11.97;2.17;;;8.30;99.90;;;;;;5064021;28;20537;-72
2022/12/22 16:18:33;;;;;;;11.30;2.43;;;8.20;99.90;;;;;;5055291;28;20452;-72
2022/12/22 16:21:10;;;;;;;12.13;1.33;;;8.20;99.90;;;;;;5047011;28;20427;-72
2022/12/22 16:23:36;;;;;;;8.20;2.00;;;8.20;99.90;;;;;;5047051;28;20435;-72
2022/12/22 16:26:03;;;;;;;10.00;2.13;;;8.20;99.90;;;;;;5052551;28;20442;-72
2022/12/22 16:28:29;;;;;;;5.33;1.70;;;8.20;99.90;;;;;;5053354;28;20189;-72
2022/12/22 16:30:55;;;;;;;2.17;1.50;;;8.20;99.90;;;;;;5053162;28;20415;-72
2022/12/22 16:33:21;;;;;;;12.13;1.83;;;8.20;99.90;;;;;;5053192;28;20559;-72
2022/12/22 16:35:46;;;;;;;9.23;2.23;;;8.20;99.90;;;;;;5059774;28;20550;-72
2022/12/22 16:38:12;;;;;;;6.80;1.97;;;8.20;99.90;;;;;;5046986;28;20796;-73
2022/12/22 16:40:46;;;;;;;7.57;1.50;;;8.30;99.90;;;;;;5046701;28;20181;-73
2022/12/22 16:43:19;;;;;;;9.00;1.57;;;8.30;99.90;;;;;;5047682;28;20185;-73
2022/12/22 16:45:45;;;;;;;4.33;1.70;;;8.30;99.90;;;;;;5066266;28;20542;-73
2022/12/22 16:48:38;;;;;;;4.90;2.30;;;8.30;99.90;;;;;;5048142;28;20551;-73